CheckWX is a tool to help pilots better visualize weather data.  It is not intended as a substitute for an official pre-flight weather briefing.

22:34:15 UTC

EHGR METAR
Gilze Rijen Air Base Airport
Breda, The Netherlands
Current

9 mins ago

EHGR 262225Z AUTO 28005KT 260V320 9999 OVC048 06/05 Q1032 BLU
Observed
Mar-26 @ 22:25 UTC
Wind
  • 280° at 5 KTS
Visibility
10,000+ meters
Flight Rules
VFR
Cloud Levels
  • Overcast at 4,800' AGL
Temperature
C / 43°F
Dewpoint
C / 41°F
Humidity
93%
Altimeter
30.47" Hg
Pressure
1031.91 hPa
Previous

32 mins ago

EHGR 262202Z AUTO 29006KT 9999 OVC046 07/05 Q1032 BLU
Observed
Mar-26 @ 22:02 UTC
Wind
  • 290° at 6 KTS
Visibility
10,000+ meters
Flight Rules
VFR
Cloud Levels
  • Overcast at 4,600' AGL
Temperature
C / 45°F
Dewpoint
C / 41°F
Humidity
87%
Altimeter
30.47" Hg
Pressure
1031.91 hPa
Previous

39 mins ago

EHGR 262155Z AUTO 29005KT 9999 OVC046 07/05 Q1032 BLU 29008KT 9999 FEW012 BKN050
Observed
Mar-26 @ 21:55 UTC
Wind
  • 290° at 5 KTS
Visibility
10,000+ meters
Flight Rules
VFR
Cloud Levels
  • Overcast at 4,600' AGL
  • Few at 1,200' AGL
  • Broken at 5,000' AGL
Temperature
C / 45°F
Dewpoint
C / 41°F
Humidity
87%
Altimeter
30.47" Hg
Pressure
1031.91 hPa